Carey, Ohio
Current Conditions -  °F | °C
As of 10:53 AM on Friday 31 Oct 2014 (Local Time) from KFDY Reporting Station
Light Rain Light Rain  
Wind Chill: 38°   Ceiling: 2900
Heat Index: 44°   Visibility: 8mi
Dew Point: 39°   Wind: 12mph
Humidity: 82%   Direction: 270°W
Pressure: 29.9"   Gusts: NA
Location:  40.95°N, 83.38°W
Report Text: KFDY 311453Z AUTO 27010KT 8SM -RA FEW020 BKN029 OVC047 07/04 A2990 RMK AO2 RAE1354B22 SLP123 P0000 60000 T00670039 58007
Loading
Personal Weather Stations






























Interactive Weather Map
Tropical Storm Tracking
New forecast layout! Learn more

10-Day Weather Forecast

Advertisements
Track Severe Weather on mobile